Fort Hunter, New York
Current Conditions -  °F | °C
As of 8:35 PM on Wednesday 26 Nov 2014 (Local Time) from KNY0 Reporting Station
Overcast Overcast  
Wind Chill: -2°   Ceiling: 900
Heat Index: -2°   Visibility: 0.75mi
Dew Point: -2°   Wind: 3mph
Humidity: 96%   Direction: 260°W
Pressure: 29.93"   Gusts: NA
Location:  42.94°N, 74.28°W
Report Text: KNY0 270135Z AUTO 26003KT 3/4SM OVC009 M02/M02 A2993 RMK AO2 P0003 T10171022
Loading
Personal Weather Stations






























Interactive Weather Map New forecast layout! Learn more

10-Day Weather Forecast

Advertisements
Track Severe Weather on mobile